Time;durP1;ratioP1;P1;durP2;ratioP2;P2;SDS_P1;SDS_P2;PMS_P1;PMS_P2;Temp;Humidity;BMP_temperature;BMP_pressure;BME280_temperature;BME280_humidity;BME280_pressure;Samples;Min_cycle;Max_cycle;Signal;HPM_P1;HPM_P2
2022/10/26 00:01:31;;;;;;;2.97;2.60;;;8.30;97.30;;;;;;5050446;28;20511;-86
2022/10/26 00:03:57;;;;;;;1.93;1.83;;;8.30;97.30;;;;;;5048944;28;20297;-87
2022/10/26 00:06:25;;;;;;;3.40;2.23;;;8.30;97.30;;;;;;5049712;28;20441;-86
2022/10/26 00:08:55;;;;;;;1.97;1.70;;;8.30;97.30;;;;;;5062597;28;20195;-86
2022/10/26 00:11:21;;;;;;;2.03;1.93;;;8.30;97.30;;;;;;5060364;28;20457;-87
2022/10/26 00:13:52;;;;;;;1.80;1.70;;;8.30;97.30;;;;;;5048468;28;20560;-86
2022/10/26 00:16:25;;;;;;;1.40;1.30;;;8.30;97.30;;;;;;5050217;28;20282;-86
2022/10/26 00:18:54;;;;;;;2.50;1.83;;;8.30;97.30;;;;;;5039556;28;21238;-84
2022/10/26 00:21:21;;;;;;;1.90;1.80;;;8.30;97.30;;;;;;5037246;28;20422;-87
2022/10/26 00:23:49;;;;;;;1.67;1.57;;;8.20;97.30;;;;;;5048352;28;20426;-86
2022/10/26 00:26:15;;;;;;;3.40;2.10;;;8.20;97.30;;;;;;5055925;28;20425;-87
2022/10/26 00:28:43;;;;;;;8.70;2.20;;;8.20;97.30;;;;;;5061906;28;20568;-85
2022/10/26 00:31:13;;;;;;;1.63;1.60;;;8.20;97.30;;;;;;5030223;28;20270;-85
2022/10/26 00:33:54;;;;;;;2.83;2.63;;;8.20;97.30;;;;;;5016717;28;20849;-85
2022/10/26 00:36:24;;;;;;;1.43;1.33;;;8.10;97.30;;;;;;5056016;28;20437;-85
2022/10/26 00:38:54;;;;;;;2.47;2.27;;;8.10;97.30;;;;;;5042226;28;21675;-85
2022/10/26 00:41:29;;;;;;;1.50;1.40;;;8.10;97.30;;;;;;5073386;28;20526;-87
2022/10/26 00:43:55;;;;;;;12.10;3.27;;;8.10;97.30;;;;;;5024882;28;21067;-87
2022/10/26 00:46:32;;;;;;;2.20;2.00;;;8.00;97.30;;;;;;5035316;28;20423;-86
2022/10/26 00:49:07;;;;;;;1.37;1.27;;;8.00;97.30;;;;;;5041627;28;20963;-85
2022/10/26 00:51:41;;;;;;;1.73;1.67;;;8.00;97.30;;;;;;5054446;28;20422;-84
2022/10/26 00:54:12;;;;;;;1.30;1.20;;;8.00;97.30;;;;;;5036104;28;20461;-85
2022/10/26 00:56:38;;;;;;;1.37;1.27;;;8.00;97.30;;;;;;5053665;28;20406;-84
2022/10/26 00:59:06;;;;;;;1.93;1.80;;;7.90;97.30;;;;;;5044764;28;20422;-85
2022/10/26 01:01:35;;;;;;;1.70;1.60;;;7.90;97.30;;;;;;5051660;28;20441;-85
2022/10/26 01:04:01;;;;;;;3.17;2.90;;;7.90;97.30;;;;;;5045190;28;20409;-85
2022/10/26 01:06:29;;;;;;;1.60;1.50;;;7.90;97.30;;;;;;5072638;28;20480;-85
2022/10/26 01:08:54;;;;;;;1.40;1.40;;;7.90;97.30;;;;;;5044880;28;20571;-85
2022/10/26 01:11:20;;;;;;;2.57;2.37;;;7.90;97.30;;;;;;5048150;28;20462;-84
2022/10/26 01:13:47;;;;;;;1.60;1.50;;;7.90;97.30;;;;;;5035336;28;20178;-83
2022/10/26 01:16:22;;;;;;;6.03;3.70;;;7.80;97.30;;;;;;5035330;28;20187;-85
2022/10/26 01:19:12;;;;;;;1.77;1.57;;;7.80;97.30;;;;;;5045036;28;20529;-85
2022/10/26 01:21:43;;;;;;;2.80;1.83;;;7.80;97.30;;;;;;5062829;28;20442;-85
2022/10/26 01:24:29;;;;;;;1.57;1.47;;;7.70;97.30;;;;;;5035190;28;20927;-85
2022/10/26 01:27:12;;;;;;;1.60;1.50;;;7.70;97.30;;;;;;5035288;28;20450;-84
2022/10/26 01:30:16;;;;;;;1.97;1.87;;;7.70;97.30;;;;;;5034527;28;20485;-85
2022/10/26 01:33:08;;;;;;;3.40;2.30;;;7.70;97.30;;;;;;5055238;22;20486;-84
2022/10/26 01:36:00;;;;;;;3.13;2.93;;;7.70;97.30;;;;;;5071266;28;20409;-82
2022/10/26 01:38:56;;;;;;;3.50;3.30;;;7.70;97.30;;;;;;5069807;28;20411;-81
2022/10/26 01:41:53;;;;;;;3.17;2.13;;;7.70;97.30;;;;;;5063341;28;20416;-82
2022/10/26 01:44:28;;;;;;;2.30;2.10;;;7.60;97.30;;;;;;5061992;28;20954;-82
2022/10/26 01:46:57;;;;;;;3.70;3.50;;;7.60;97.30;;;;;;5057788;28;20483;-82
2022/10/26 01:49:26;;;;;;;1.93;1.80;;;7.60;97.30;;;;;;5070229;28;20465;-82
2022/10/26 01:51:52;;;;;;;3.87;3.47;;;7.60;97.30;;;;;;5054579;28;20422;-81
2022/10/26 01:54:18;;;;;;;5.47;4.17;;;7.60;97.30;;;;;;5054463;28;20988;-82
2022/10/26 01:56:56;;;;;;;3.53;3.30;;;7.60;97.30;;;;;;5054365;28;20602;-82
2022/10/26 01:59:55;;;;;;;2.80;2.50;;;7.60;97.30;;;;;;5054441;28;20175;-82
2022/10/26 02:02:31;;;;;;;3.00;2.80;;;7.60;97.30;;;;;;5072186;28;20417;-82
2022/10/26 02:05:23;;;;;;;1.97;1.90;;;7.50;97.30;;;;;;5091590;28;20462;-82
2022/10/26 02:08:01;;;;;;;4.57;2.90;;;7.50;97.30;;;;;;5058743;28;20413;-81
2022/10/26 02:10:32;;;;;;;2.53;1.50;;;7.50;97.30;;;;;;5067288;28;20475;-82
2022/10/26 02:13:15;;;;;;;3.80;1.87;;;7.50;97.30;;;;;;5053987;28;20520;-82
2022/10/26 02:16:05;;;;;;;1.73;1.63;;;7.50;97.30;;;;;;5072164;28;20445;-82
2022/10/26 02:18:48;;;;;;;3.50;2.10;;;7.50;97.30;;;;;;5066964;28;20421;-82
2022/10/26 02:21:23;;;;;;;6.00;1.87;;;7.50;97.30;;;;;;5065486;28;20438;-82
2022/10/26 02:23:51;;;;;;;1.37;1.27;;;7.50;97.30;;;;;;5066779;28;20437;-82
2022/10/26 02:26:21;;;;;;;1.67;1.67;;;7.50;97.30;;;;;;5066963;28;20424;-82
2022/10/26 02:28:49;;;;;;;18.20;2.40;;;7.50;97.30;;;;;;5053984;28;20445;-82
2022/10/26 02:31:16;;;;;;;4.10;2.33;;;7.50;97.30;;;;;;5053909;28;20464;-82
2022/10/26 02:33:49;;;;;;;5.87;3.10;;;7.50;97.30;;;;;;5061622;28;20460;-82
2022/10/26 02:36:21;;;;;;;1.97;1.87;;;7.40;97.30;;;;;;5060528;28;20417;-83
2022/10/26 02:38:48;;;;;;;2.00;1.90;;;7.40;97.30;;;;;;5074009;28;20409;-81
2022/10/26 02:41:14;;;;;;;3.70;2.00;;;7.50;97.30;;;;;;5070378;28;20420;-82
2022/10/26 02:43:52;;;;;;;1.60;1.50;;;7.50;97.30;;;;;;5053597;28;20812;-83
2022/10/26 02:46:22;;;;;;;2.40;2.20;;;7.50;97.30;;;;;;5053926;28;20516;-81
2022/10/26 02:48:48;;;;;;;1.83;1.80;;;7.50;97.30;;;;;;5059819;28;20455;-82
2022/10/26 02:51:21;;;;;;;3.00;2.80;;;7.60;97.30;;;;;;5070716;28;20496;-82
2022/10/26 02:54:08;;;;;;;2.23;2.03;;;7.60;97.30;;;;;;5054050;28;20523;-82
2022/10/26 02:56:44;;;;;;;1.33;1.30;;;7.60;97.30;;;;;;5042718;28;20425;-83
2022/10/26 02:59:11;;;;;;;11.10;2.70;;;7.70;97.30;;;;;;5040561;28;20413;-82
2022/10/26 03:01:37;;;;;;;1.50;1.40;;;7.70;97.30;;;;;;5072887;28;20839;-82
2022/10/26 03:04:03;;;;;;;5.17;3.10;;;7.70;97.30;;;;;;5060632;28;21043;-82
2022/10/26 03:06:28;;;;;;;2.40;2.13;;;7.70;97.30;;;;;;5074219;28;20509;-82
2022/10/26 03:08:54;;;;;;;6.30;4.50;;;7.70;97.30;;;;;;5057782;28;20681;-82
2022/10/26 03:11:19;;;;;;;2.60;2.27;;;7.70;97.30;;;;;;5064504;28;20838;-82
2022/10/26 03:13:45;;;;;;;3.43;3.23;;;7.70;97.30;;;;;;5064647;28;20221;-82
2022/10/26 03:16:10;;;;;;;1.73;1.30;;;7.80;97.30;;;;;;5047289;28;20230;-82
2022/10/26 03:18:36;;;;;;;1.40;1.30;;;7.80;97.30;;;;;;5087102;28;20689;-82
2022/10/26 03:21:02;;;;;;;2.80;2.60;;;7.80;97.30;;;;;;5085093;28;20224;-82
2022/10/26 03:23:27;;;;;;;1.70;1.60;;;7.80;97.30;;;;;;5089990;28;20230;-81
2022/10/26 03:25:57;;;;;;;3.07;2.53;;;7.80;97.30;;;;;;5043390;28;20437;-82
2022/10/26 03:28:23;;;;;;;3.57;2.37;;;7.90;97.30;;;;;;5049662;28;20171;-81
2022/10/26 03:30:48;;;;;;;2.07;1.93;;;7.90;97.30;;;;;;5068718;28;20453;-82
2022/10/26 03:33:14;;;;;;;1.90;1.80;;;7.90;97.30;;;;;;5054325;28;20227;-81
2022/10/26 03:35:39;;;;;;;1.77;1.67;;;8.00;97.30;;;;;;5052807;28;20195;-81
2022/10/26 03:38:05;;;;;;;3.50;2.10;;;8.00;97.30;;;;;;5055740;28;20190;-82
2022/10/26 03:40:31;;;;;;;2.37;2.17;;;8.00;97.30;;;;;;5065716;28;20258;-81
2022/10/26 03:42:56;;;;;;;5.40;1.93;;;8.00;97.30;;;;;;5072810;28;20209;-81
2022/10/26 03:45:22;;;;;;;3.80;2.10;;;8.00;97.30;;;;;;5055093;28;20195;-81
2022/10/26 03:47:48;;;;;;;1.53;1.53;;;8.00;97.30;;;;;;5068799;28;20290;-82
2022/10/26 03:50:17;;;;;;;4.77;2.37;;;8.00;97.30;;;;;;5047459;28;20690;-84
2022/10/26 03:52:43;;;;;;;2.00;1.83;;;7.90;97.30;;;;;;5075992;28;20440;-82
2022/10/26 03:55:09;;;;;;;2.03;1.90;;;7.90;97.30;;;;;;5070144;28;20485;-81
2022/10/26 03:57:42;;;;;;;2.53;2.33;;;7.90;97.30;;;;;;5079112;28;20789;-83
2022/10/26 04:00:10;;;;;;;1.87;1.77;;;7.90;97.30;;;;;;5066406;28;20422;-82
2022/10/26 04:02:35;;;;;;;1.53;1.43;;;7.90;97.30;;;;;;5057560;28;20521;-82
2022/10/26 04:05:01;;;;;;;5.20;2.90;;;7.90;97.30;;;;;;5054023;28;21013;-83
2022/10/26 04:07:26;;;;;;;3.20;3.00;;;7.80;97.30;;;;;;5062557;28;20191;-82
2022/10/26 04:09:52;;;;;;;7.40;2.50;;;7.80;97.30;;;;;;5055824;28;20211;-82
2022/10/26 04:12:17;;;;;;;9.10;4.97;;;7.80;97.30;;;;;;5064452;28;21432;-83
2022/10/26 04:14:43;;;;;;;2.40;2.13;;;7.70;97.30;;;;;;5072879;28;20187;-83
2022/10/26 04:17:09;;;;;;;1.83;1.63;;;7.70;97.30;;;;;;5076277;28;20190;-82
2022/10/26 04:19:34;;;;;;;3.73;3.53;;;7.70;97.30;;;;;;5066869;28;20235;-83
2022/10/26 04:22:00;;;;;;;3.47;2.27;;;7.70;97.30;;;;;;5044054;28;20192;-83
2022/10/26 04:24:25;;;;;;;3.10;2.53;;;7.70;97.30;;;;;;5052813;28;20200;-83
2022/10/26 04:26:51;;;;;;;2.70;2.50;;;7.60;97.30;;;;;;5053724;28;20699;-83
2022/10/26 04:29:16;;;;;;;1.33;1.27;;;7.60;97.30;;;;;;5052339;28;20210;-83
2022/10/26 04:31:42;;;;;;;1.27;1.27;;;7.50;97.30;;;;;;5054061;28;20218;-83
2022/10/26 04:34:07;;;;;;;2.73;2.37;;;7.50;97.30;;;;;;5058830;28;20333;-83
2022/10/26 04:36:33;;;;;;;2.37;2.17;;;7.50;97.30;;;;;;5073757;28;20175;-83
2022/10/26 04:38:59;;;;;;;1.90;1.83;;;7.50;97.30;;;;;;5054209;28;20171;-82
2022/10/26 04:41:25;;;;;;;2.03;1.90;;;7.40;97.30;;;;;;5066030;28;20968;-79
2022/10/26 04:43:51;;;;;;;2.10;1.53;;;7.40;97.30;;;;;;5057325;28;20247;-80
2022/10/26 04:46:20;;;;;;;1.30;1.20;;;7.50;97.30;;;;;;5050084;28;20218;-82
2022/10/26 04:48:47;;;;;;;4.10;3.17;;;7.50;97.30;;;;;;5045174;28;20842;-82
2022/10/26 04:51:13;;;;;;;2.13;1.97;;;7.50;97.30;;;;;;5049993;28;20471;-82
2022/10/26 04:53:39;;;;;;;2.30;2.10;;;7.50;97.30;;;;;;5051369;28;20437;-82
2022/10/26 04:56:04;;;;;;;9.40;2.50;;;7.50;97.30;;;;;;5055642;28;20565;-82
2022/10/26 04:58:30;;;;;;;1.57;1.47;;;7.50;97.30;;;;;;5072563;28;20208;-82
2022/10/26 05:01:01;;;;;;;3.60;3.10;;;7.50;97.30;;;;;;5062604;28;20203;-81
2022/10/26 05:03:26;;;;;;;3.93;3.17;;;7.60;97.30;;;;;;5046139;28;20198;-82
2022/10/26 05:05:52;;;;;;;2.80;2.27;;;7.60;97.30;;;;;;5059612;28;21126;-79
2022/10/26 05:08:18;;;;;;;7.50;4.47;;;7.60;97.30;;;;;;5045951;28;20262;-83
2022/10/26 05:10:49;;;;;;;4.27;2.03;;;7.60;97.30;;;;;;5070440;28;20207;-83
2022/10/26 05:13:28;;;;;;;2.93;1.97;;;7.60;97.30;;;;;;5076276;28;20562;-83
2022/10/26 05:16:02;;;;;;;3.90;3.27;;;7.60;97.30;;;;;;5049870;28;20963;-82
2022/10/26 05:18:33;;;;;;;3.23;3.03;;;7.60;97.30;;;;;;5068122;28;20412;-82
2022/10/26 05:20:59;;;;;;;9.13;3.70;;;7.70;97.30;;;;;;5068398;28;20424;-82
2022/10/26 05:23:24;;;;;;;1.67;1.57;;;7.70;97.30;;;;;;5045672;28;20546;-79
2022/10/26 05:25:50;;;;;;;2.37;2.20;;;7.70;97.30;;;;;;5052745;28;20184;-81
2022/10/26 05:28:17;;;;;;;1.77;1.67;;;7.70;97.30;;;;;;5050924;28;20477;-84
2022/10/26 05:30:44;;;;;;;1.70;1.60;;;7.70;97.30;;;;;;5065307;28;20203;-82
2022/10/26 05:33:11;;;;;;;2.13;1.97;;;7.70;97.30;;;;;;5058058;28;20465;-80
2022/10/26 05:35:37;;;;;;;3.30;2.13;;;7.70;97.30;;;;;;5064616;28;21168;-82
2022/10/26 05:38:12;;;;;;;2.73;2.53;;;7.70;97.30;;;;;;5052364;28;20417;-80
2022/10/26 05:40:47;;;;;;;4.73;2.67;;;7.70;97.30;;;;;;5055675;28;20434;-80
2022/10/26 05:43:13;;;;;;;3.23;2.70;;;7.70;97.30;;;;;;5053400;28;20966;-83
2022/10/26 05:45:38;;;;;;;2.13;1.97;;;7.70;97.30;;;;;;5047473;28;20438;-83
2022/10/26 05:48:04;;;;;;;1.77;1.67;;;7.70;97.30;;;;;;5059993;28;20652;-83
2022/10/26 05:50:30;;;;;;;2.93;2.20;;;7.70;97.30;;;;;;5052975;28;20210;-83
2022/10/26 05:52:55;;;;;;;8.40;2.63;;;7.70;97.30;;;;;;5050357;28;20441;-82
2022/10/26 05:55:21;;;;;;;3.43;3.03;;;7.70;97.30;;;;;;5050353;28;20179;-84
2022/10/26 05:57:47;;;;;;;2.30;2.03;;;7.70;97.30;;;;;;5052299;28;20775;-79
2022/10/26 06:00:22;;;;;;;3.53;2.27;;;7.70;97.30;;;;;;5048440;28;20426;-83
2022/10/26 06:03:14;;;;;;;2.33;2.13;;;7.70;97.30;;;;;;5066891;28;20473;-83
2022/10/26 06:05:51;;;;;;;2.17;2.03;;;7.80;97.30;;;;;;5068965;28;20534;-83
2022/10/26 06:08:17;;;;;;;2.20;2.00;;;7.80;97.30;;;;;;5064373;28;21104;-83
2022/10/26 06:10:43;;;;;;;1.40;1.30;;;7.80;97.30;;;;;;5058072;28;20496;-83
2022/10/26 06:13:09;;;;;;;2.00;1.40;;;7.90;97.30;;;;;;5053845;28;20536;-83
2022/10/26 06:15:50;;;;;;;1.70;1.10;;;7.90;97.30;;;;;;5072849;28;20500;-83
2022/10/26 06:18:29;;;;;;;2.80;2.33;;;8.00;97.30;;;;;;5067811;28;20205;-83
2022/10/26 06:20:57;;;;;;;4.20;3.17;;;8.00;97.30;;;;;;5054502;28;20421;-82
2022/10/26 06:23:36;;;;;;;1.87;1.63;;;8.00;97.30;;;;;;5060433;28;20543;-83
2022/10/26 06:26:11;;;;;;;3.23;2.70;;;8.10;97.30;;;;;;5048725;28;20458;-80
2022/10/26 06:28:55;;;;;;;1.93;1.83;;;8.20;97.30;;;;;;5049852;28;20864;-83
2022/10/26 06:31:21;;;;;;;4.70;3.00;;;8.20;97.30;;;;;;5059710;28;21224;-82
2022/10/26 06:33:47;;;;;;;2.33;2.13;;;8.30;97.30;;;;;;5048867;28;20477;-83
2022/10/26 06:36:25;;;;;;;1.97;1.63;;;8.30;97.30;;;;;;5062041;28;20186;-79
2022/10/26 06:38:55;;;;;;;4.03;2.83;;;8.40;97.30;;;;;;5071661;28;20421;-82
2022/10/26 06:41:21;;;;;;;3.87;1.80;;;8.40;97.30;;;;;;5062755;28;20928;-83
2022/10/26 06:43:47;;;;;;;4.60;1.80;;;8.50;97.30;;;;;;5072886;28;20444;-83
2022/10/26 06:46:42;;;;;;;1.40;1.30;;;8.60;97.30;;;;;;5052709;28;20413;-83
2022/10/26 06:49:35;;;;;;;3.23;3.10;;;8.60;97.30;;;;;;5069083;28;20433;-83
2022/10/26 06:52:12;;;;;;;2.80;2.60;;;8.80;97.30;;;;;;5036943;28;20479;-83
2022/10/26 06:54:50;;;;;;;5.40;2.10;;;8.80;97.30;;;;;;5054791;28;20950;-83
2022/10/26 06:57:21;;;;;;;1.50;1.40;;;8.90;97.30;;;;;;5054713;28;20425;-83
2022/10/26 06:59:55;;;;;;;2.97;2.80;;;9.00;97.30;;;;;;5072522;28;20903;-83
2022/10/26 07:02:21;;;;;;;2.63;2.43;;;9.10;97.30;;;;;;5057615;28;20448;-83
2022/10/26 07:04:47;;;;;;;1.83;1.73;;;9.10;97.30;;;;;;5049619;28;20511;-82
2022/10/26 07:07:22;;;;;;;1.77;1.67;;;9.10;97.30;;;;;;5046458;28;20422;-83
2022/10/26 07:09:48;;;;;;;1.37;1.27;;;9.20;97.30;;;;;;5044144;28;20222;-83
2022/10/26 07:12:14;;;;;;;4.37;2.33;;;9.20;97.30;;;;;;5049041;28;20971;-83
2022/10/26 07:14:40;;;;;;;2.23;2.07;;;9.30;97.30;;;;;;5052073;28;20431;-83
2022/10/26 07:17:05;;;;;;;2.03;1.90;;;9.40;97.30;;;;;;5056383;28;20179;-82
2022/10/26 07:19:31;;;;;;;1.27;1.23;;;9.40;97.30;;;;;;5053717;28;20262;-83
2022/10/26 07:21:59;;;;;;;3.00;2.27;;;9.50;97.30;;;;;;5070802;28;20181;-83
2022/10/26 07:24:24;;;;;;;2.43;2.23;;;9.60;97.30;;;;;;5071440;28;20195;-84
2022/10/26 07:26:53;;;;;;;3.33;3.17;;;9.70;97.30;;;;;;5049465;28;20493;-84
2022/10/26 07:29:18;;;;;;;2.23;2.03;;;9.80;97.30;;;;;;5067708;28;20170;-81
2022/10/26 07:31:44;;;;;;;11.83;2.93;;;9.90;97.30;;;;;;5066498;28;20417;-84
2022/10/26 07:34:09;;;;;;;2.07;1.70;;;9.90;97.30;;;;;;5066200;28;20226;-84
2022/10/26 07:36:35;;;;;;;2.37;1.70;;;10.00;97.30;;;;;;5057162;28;20177;-83
2022/10/26 07:39:02;;;;;;;3.23;2.50;;;10.10;97.30;;;;;;5069178;28;20230;-84
2022/10/26 07:41:27;;;;;;;3.13;2.83;;;10.10;97.30;;;;;;5058989;28;20421;-82
2022/10/26 07:43:53;;;;;;;1.43;1.00;;;10.30;97.30;;;;;;5071841;28;20536;-83
2022/10/26 07:46:18;;;;;;;3.03;2.03;;;10.30;97.30;;;;;;5055317;28;20198;-82
2022/10/26 07:48:44;;;;;;;2.90;1.67;;;10.50;97.30;;;;;;5054654;28;20210;-82
2022/10/26 07:51:09;;;;;;;1.13;1.10;;;10.70;97.30;;;;;;5050962;28;20241;-82
2022/10/26 07:53:35;;;;;;;1.57;1.47;;;10.90;97.30;;;;;;5052543;28;20206;-83
2022/10/26 07:56:01;;;;;;;1.83;1.77;;;11.00;97.30;;;;;;5052680;28;20180;-83
2022/10/26 07:58:27;;;;;;;5.40;2.90;;;11.20;97.30;;;;;;5040673;28;20205;-83
2022/10/26 08:00:53;;;;;;;11.50;1.73;;;11.30;97.30;;;;;;5055709;28;20319;-84
2022/10/26 08:03:19;;;;;;;3.10;2.73;;;11.50;97.30;;;;;;5037307;28;20468;-83
2022/10/26 08:05:46;;;;;;;1.60;1.50;;;11.60;97.30;;;;;;5049565;28;20441;-83
2022/10/26 08:08:13;;;;;;;3.60;1.67;;;11.60;97.30;;;;;;5050515;28;20513;-83
2022/10/26 08:10:42;;;;;;;1.87;1.70;;;11.70;97.30;;;;;;5064769;28;20472;-84
2022/10/26 08:13:08;;;;;;;2.40;1.90;;;11.80;97.30;;;;;;5050656;28;20480;-83
2022/10/26 08:15:34;;;;;;;1.17;1.07;;;11.90;97.30;;;;;;5064081;28;20458;-83
2022/10/26 08:17:59;;;;;;;6.33;2.50;;;12.00;97.30;;;;;;5067895;28;20455;-83
2022/10/26 08:20:25;;;;;;;2.40;1.50;;;12.10;97.30;;;;;;5060740;28;20187;-82
2022/10/26 08:22:51;;;;;;;1.00;0.90;;;12.20;97.30;;;;;;5041426;28;20210;-83
2022/10/26 08:25:17;;;;;;;1.77;1.77;;;12.30;97.30;;;;;;5043979;28;20203;-83
2022/10/26 08:27:43;;;;;;;1.20;1.10;;;12.40;97.30;;;;;;5046742;28;20437;-83
2022/10/26 08:30:09;;;;;;;2.13;1.57;;;12.50;97.30;;;;;;5050844;28;20457;-83
2022/10/26 08:32:34;;;;;;;1.13;1.07;;;12.70;97.30;;;;;;5047974;28;20199;-84
2022/10/26 08:35:00;;;;;;;1.47;1.17;;;12.90;97.30;;;;;;5051114;28;20425;-83
2022/10/26 08:37:26;;;;;;;1.10;1.00;;;13.10;97.30;;;;;;5050647;28;20179;-82
2022/10/26 08:39:52;;;;;;;1.80;1.50;;;13.20;97.30;;;;;;5049498;28;20554;-83
2022/10/26 08:42:41;;;;;;;4.33;1.40;;;13.40;97.30;;;;;;5054653;28;20611;-83
2022/10/26 08:45:30;;;;;;;3.00;2.50;;;13.60;97.30;;;;;;5047990;28;20191;-82
2022/10/26 08:48:02;;;;;;;1.43;1.33;;;13.80;97.30;;;;;;5057304;28;20413;-83
2022/10/26 08:53:02;;;;;;;1.20;1.10;;;14.10;97.30;;;;;;5055471;28;20469;-82
2022/10/26 08:55:48;;;;;;;1.90;1.30;;;14.10;97.30;;;;;;5046551;28;20414;-83
2022/10/26 08:58:36;;;;;;;1.93;1.60;;;14.20;97.30;;;;;;5023472;28;20426;-87
2022/10/26 09:01:02;;;;;;;1.53;1.37;;;14.20;97.30;;;;;;5034082;28;20438;-86
2022/10/26 09:03:30;;;;;;;1.50;1.47;;;14.20;97.30;;;;;;5033855;28;20415;-88
2022/10/26 09:06:31;;;;;;;1.60;1.50;;;14.30;97.30;;;;;;5013101;28;20435;-88
2022/10/26 09:09:33;;;;;;;1.03;0.97;;;14.30;97.30;;;;;;5007704;28;20421;-88
2022/10/26 09:12:18;;;;;;;2.10;1.57;;;14.30;97.30;;;;;;5016622;28;20431;-91
2022/10/26 09:14:51;;;;;;;1.20;1.10;;;14.30;97.30;;;;;;5004000;28;20541;-88
2022/10/26 09:17:38;;;;;;;4.20;2.40;;;14.40;97.30;;;;;;5020007;28;20915;-88
2022/10/26 09:20:41;;;;;;;3.60;2.23;;;14.40;97.30;;;;;;5002116;28;20450;-87
2022/10/26 09:23:32;;;;;;;1.50;1.40;;;14.60;97.30;;;;;;4993284;28;20411;-87
2022/10/26 09:26:10;;;;;;;1.40;1.30;;;14.70;97.30;;;;;;5011978;28;20404;-88
2022/10/26 09:28:42;;;;;;;1.20;1.10;;;14.90;97.30;;;;;;4994874;28;20424;-88
2022/10/26 09:31:30;;;;;;;1.40;1.30;;;15.00;97.30;;;;;;4994563;28;20502;-87
2022/10/26 09:34:19;;;;;;;1.33;1.23;;;15.00;97.30;;;;;;4994803;28;20425;-86
2022/10/26 09:40:02;;;;;;;3.47;2.23;;;15.40;97.30;;;;;;4966831;28;20438;-87
2022/10/26 09:42:51;;;;;;;2.67;2.00;;;15.60;97.30;;;;;;4931710;29;20431;-88
2022/10/26 09:46:01;;;;;;;3.13;1.40;;;15.70;97.30;;;;;;4923860;29;20494;-87
2022/10/26 09:48:38;;;;;;;1.07;0.97;;;15.80;97.30;;;;;;4917133;28;20514;-88
2022/10/26 09:51:04;;;;;;;2.30;1.87;;;15.90;97.30;;;;;;4990053;28;20489;-87
2022/10/26 09:53:30;;;;;;;2.50;2.30;;;15.70;97.30;;;;;;5022816;28;20517;-88
2022/10/26 09:56:03;;;;;;;1.77;1.67;;;15.70;97.30;;;;;;5043391;28;20210;-88
2022/10/26 09:58:33;;;;;;;1.93;1.40;;;15.60;97.30;;;;;;5036459;28;20952;-87
2022/10/26 10:00:59;;;;;;;2.27;2.07;;;15.60;97.30;;;;;;5034283;28;20443;-87
2022/10/26 10:03:27;;;;;;;2.00;1.37;;;15.70;97.30;;;;;;5039164;28;20416;-89
2022/10/26 10:06:14;;;;;;;2.00;1.53;;;15.90;97.30;;;;;;5030731;28;20188;-87
2022/10/26 10:08:40;;;;;;;4.70;2.43;;;16.00;97.30;;;;;;5038787;28;20423;-87
2022/10/26 10:11:23;;;;;;;3.90;1.93;;;16.30;97.30;;;;;;5055291;28;20480;-87
2022/10/26 10:13:51;;;;;;;1.90;1.80;;;16.50;97.30;;;;;;5034307;28;20217;-87
2022/10/26 10:16:24;;;;;;;1.10;1.10;;;16.60;97.30;;;;;;5056577;28;20413;-87
2022/10/26 10:19:04;;;;;;;2.50;1.73;;;16.70;97.30;;;;;;5060553;28;21195;-88
2022/10/26 10:22:14;;;;;;;5.27;1.40;;;16.70;97.30;;;;;;5051884;28;20677;-86
2022/10/26 10:25:20;;;;;;;3.57;2.00;;;16.70;97.30;;;;;;5051211;28;20611;-89
2022/10/26 10:27:54;;;;;;;3.27;1.93;;;16.70;97.30;;;;;;5027781;28;20477;-85
2022/10/26 10:30:43;;;;;;;1.40;1.30;;;16.70;97.30;;;;;;5047120;28;20519;-85
2022/10/26 10:33:12;;;;;;;2.07;1.23;;;16.80;97.30;;;;;;5023608;28;20419;-87
2022/10/26 10:35:52;;;;;;;2.13;1.97;;;16.90;97.30;;;;;;5029509;28;20433;-87
2022/10/26 10:38:23;;;;;;;1.67;1.57;;;17.00;97.30;;;;;;5027097;28;20399;-87
2022/10/26 10:41:03;;;;;;;1.30;1.00;;;17.10;97.30;;;;;;5023844;28;20454;-87
2022/10/26 10:43:32;;;;;;;1.63;1.20;;;17.30;97.30;;;;;;5023203;28;20477;-87
2022/10/26 10:45:58;;;;;;;2.23;1.20;;;17.40;97.30;;;;;;5030102;28;20425;-88
2022/10/26 10:48:27;;;;;;;2.13;1.37;;;17.50;97.30;;;;;;5029883;28;20579;-87
2022/10/26 10:50:56;;;;;;;1.20;1.10;;;17.50;97.30;;;;;;5044060;28;20490;-88
2022/10/26 10:53:35;;;;;;;4.40;2.20;;;17.50;97.30;;;;;;5038479;28;20414;-88
2022/10/26 10:56:14;;;;;;;3.00;1.93;;;17.50;97.30;;;;;;5048425;28;20447;-87
2022/10/26 10:59:05;;;;;;;17.73;3.50;;;17.40;97.30;;;;;;5053445;28;20789;-88
2022/10/26 11:01:38;;;;;;;2.03;1.67;;;17.30;97.30;;;;;;5065385;28;20459;-86
2022/10/26 11:04:20;;;;;;;5.53;3.20;;;17.30;97.30;;;;;;5019788;28;20527;-87
2022/10/26 11:06:48;;;;;;;1.60;1.50;;;17.40;97.30;;;;;;5030023;28;20414;-88
2022/10/26 11:09:18;;;;;;;1.40;1.20;;;17.40;97.30;;;;;;5033870;28;20505;-86
2022/10/26 11:11:52;;;;;;;1.37;1.27;;;17.50;97.30;;;;;;5041416;28;20985;-87
2022/10/26 11:14:31;;;;;;;1.83;1.63;;;17.50;97.30;;;;;;5023231;28;20414;-87
2022/10/26 11:17:07;;;;;;;1.83;1.73;;;17.50;97.30;;;;;;5035944;28;20426;-87
2022/10/26 11:19:47;;;;;;;5.90;1.20;;;17.60;97.30;;;;;;5033109;28;20429;-87
2022/10/26 11:22:16;;;;;;;1.53;1.37;;;17.60;97.30;;;;;;5026170;28;20425;-87
2022/10/26 11:24:47;;;;;;;1.10;1.00;;;17.70;97.30;;;;;;5061547;28;20410;-87
2022/10/26 11:27:21;;;;;;;0.80;0.80;;;17.70;97.30;;;;;;5028359;28;20470;-89
2022/10/26 11:30:08;;;;;;;1.07;1.07;;;17.80;97.30;;;;;;5037116;28;20466;-90
2022/10/26 11:32:52;;;;;;;1.37;1.23;;;17.80;97.30;;;;;;5066575;28;20488;-88
2022/10/26 11:35:28;;;;;;;1.50;1.40;;;18.00;97.30;;;;;;5027521;28;20414;-88
2022/10/26 11:37:56;;;;;;;1.27;1.17;;;18.20;97.30;;;;;;5038030;28;20927;-88
2022/10/26 11:40:44;;;;;;;1.73;1.10;;;18.30;97.10;;;;;;5045306;28;20481;-90
2022/10/26 11:43:29;;;;;;;1.30;1.20;;;18.30;97.30;;;;;;5076724;28;20642;-91
2022/10/26 11:46:31;;;;;;;1.23;1.20;;;18.30;97.30;;;;;;5060298;28;20423;-91
2022/10/26 11:49:01;;;;;;;4.60;1.50;;;18.30;96.80;;;;;;4995316;28;20489;-86
2022/10/26 11:51:48;;;;;;;1.10;1.00;;;18.40;96.90;;;;;;5039200;28;20474;-87
2022/10/26 11:54:27;;;;;;;1.30;1.20;;;18.40;96.20;;;;;;5044018;28;20437;-86
2022/10/26 11:56:57;;;;;;;1.80;1.20;;;18.30;96.10;;;;;;5027314;28;20441;-88
2022/10/26 12:02:37;;;;;;;1.70;1.50;;;18.00;96.90;;;;;;5069076;22;20489;-85
2022/10/26 12:05:28;;;;;;;1.67;1.30;;;18.00;97.10;;;;;;5046580;28;20430;-89
2022/10/26 12:08:15;;;;;;;1.00;0.90;;;17.90;97.00;;;;;;5050626;28;20413;-89
2022/10/26 12:11:17;;;;;;;1.20;1.07;;;18.00;97.30;;;;;;5047146;28;20552;-88
2022/10/26 12:14:20;;;;;;;1.37;1.27;;;18.00;97.30;;;;;;5007732;28;20592;-86
2022/10/26 12:17:24;;;;;;;3.47;1.40;;;18.10;97.00;;;;;;5037605;28;20422;-88
2022/10/26 12:20:28;;;;;;;2.27;1.33;;;18.10;97.00;;;;;;5028516;28;20530;-88
2022/10/26 12:22:53;;;;;;;1.80;1.57;;;18.10;97.10;;;;;;5035249;28;20433;-89
2022/10/26 12:25:26;;;;;;;1.50;1.40;;;18.00;97.00;;;;;;5021993;28;20423;-87
2022/10/26 12:28:06;;;;;;;2.20;1.20;;;18.00;96.90;;;;;;5028373;28;20278;-86
2022/10/26 12:30:35;;;;;;;17.03;1.10;;;17.90;97.30;;;;;;5034301;28;20462;-87
2022/10/26 12:33:28;;;;;;;1.00;0.90;;;17.90;97.30;;;;;;5036978;28;20483;-87
2022/10/26 12:35:56;;;;;;;1.37;1.10;;;17.90;97.30;;;;;;4997263;28;20426;-85
2022/10/26 12:38:46;;;;;;;1.37;1.37;;;17.80;97.30;;;;;;5036451;28;20422;-87
2022/10/26 12:41:26;;;;;;;0.90;0.90;;;17.80;97.30;;;;;;5036267;28;20511;-86
2022/10/26 12:43:57;;;;;;;2.93;1.70;;;17.70;97.30;;;;;;5031991;28;20891;-86
2022/10/26 12:46:26;;;;;;;1.57;1.50;;;17.70;97.30;;;;;;5027352;28;20518;-86
2022/10/26 12:48:58;;;;;;;2.33;1.40;;;17.70;97.30;;;;;;5033787;28;20416;-86
2022/10/26 12:51:38;;;;;;;1.27;1.17;;;17.70;97.30;;;;;;5031119;28;20457;-86
2022/10/26 12:54:06;;;;;;;2.07;1.40;;;17.70;97.30;;;;;;5033316;28;20426;-89
2022/10/26 12:56:55;;;;;;;1.07;0.97;;;17.80;97.30;;;;;;5033816;28;20426;-85
2022/10/26 12:59:27;;;;;;;2.70;1.23;;;17.80;97.30;;;;;;5025471;28;20423;-86
2022/10/26 13:02:35;;;;;;;1.20;1.10;;;18.00;97.30;;;;;;5025627;28;20999;-84
2022/10/26 13:05:18;;;;;;;2.03;1.13;;;18.30;97.30;;;;;;5029637;28;20434;-87
2022/10/26 13:07:49;;;;;;;0.80;0.80;;;18.70;97.30;;;;;;5038601;28;20423;-84
2022/10/26 13:10:21;;;;;;;1.93;1.67;;;19.30;97.30;;;;;;5027559;28;20938;-87
2022/10/26 13:13:08;;;;;;;0.90;0.80;;;19.80;95.20;;;;;;5030381;28;20968;-87
2022/10/26 13:15:39;;;;;;;1.23;1.13;;;20.20;94.40;;;;;;5032268;28;20425;-85
2022/10/26 13:18:09;;;;;;;1.10;1.00;;;20.20;93.80;;;;;;5031902;28;20925;-85
2022/10/26 13:21:08;;;;;;;1.83;1.83;;;20.20;93.10;;;;;;5031687;28;20449;-82
2022/10/26 13:23:46;;;;;;;1.00;0.90;;;20.20;92.60;;;;;;5029528;28;20410;-85
2022/10/26 13:26:18;;;;;;;1.10;1.00;;;20.10;92.20;;;;;;5033192;28;20433;-81
2022/10/26 13:29:08;;;;;;;2.00;1.60;;;19.80;92.70;;;;;;5049750;28;20425;-84
2022/10/26 13:32:07;;;;;;;0.70;0.70;;;19.60;93.20;;;;;;5017702;23;20578;-84
2022/10/26 13:34:48;;;;;;;1.57;1.47;;;19.40;93.60;;;;;;5008680;28;20412;-84